createdAt,value
2022-10-18T00:02:11.259Z,100.00
2022-10-18T00:04:38.289Z,100.00
2022-10-18T00:07:07.326Z,100.00
2022-10-18T00:09:34.515Z,100.00
2022-10-18T00:12:03.661Z,100.00
2022-10-18T00:14:31.850Z,100.00
2022-10-18T00:16:58.728Z,100.00
2022-10-18T00:19:28.487Z,100.00
2022-10-18T00:21:59.566Z,100.00
2022-10-18T00:24:26.327Z,100.00
2022-10-18T00:26:53.381Z,100.00
2022-10-18T00:29:20.759Z,100.00
2022-10-18T00:31:49.321Z,100.00
2022-10-18T00:34:17.761Z,100.00
2022-10-18T00:36:45.445Z,100.00
2022-10-18T00:39:19.114Z,100.00
2022-10-18T00:41:46.887Z,100.00
2022-10-18T00:44:51.338Z,100.00
2022-10-18T00:47:20.313Z,100.00
2022-10-18T00:49:51.557Z,100.00
2022-10-18T00:52:21.700Z,100.00
2022-10-18T00:54:51.182Z,100.00
2022-10-18T00:57:19.792Z,100.00
2022-10-18T00:59:47.429Z,100.00
2022-10-18T01:02:15.190Z,100.00
2022-10-18T01:04:44.134Z,100.00
2022-10-18T01:07:20.757Z,100.00
2022-10-18T01:09:59.906Z,100.00
2022-10-18T01:12:37.110Z,100.00
2022-10-18T01:15:10.872Z,100.00
2022-10-18T01:17:45.671Z,100.00
2022-10-18T01:20:38.106Z,100.00
2022-10-18T01:23:09.188Z,100.00
2022-10-18T01:25:43.311Z,100.00
2022-10-18T01:28:36.647Z,100.00
2022-10-18T01:31:10.555Z,100.00
2022-10-18T01:33:41.463Z,100.00
2022-10-18T01:36:15.619Z,100.00
2022-10-18T01:38:44.689Z,100.00
2022-10-18T01:41:15.840Z,100.00
2022-10-18T01:43:45.352Z,100.00
2022-10-18T01:46:19.222Z,100.00
2022-10-18T01:48:46.707Z,100.00
2022-10-18T01:51:15.992Z,100.00
2022-10-18T01:53:42.751Z,100.00
2022-10-18T01:56:25.379Z,100.00
2022-10-18T01:59:02.442Z,100.00
2022-10-18T02:01:38.611Z,100.00
2022-10-18T02:04:13.612Z,100.00
2022-10-18T02:06:45.864Z,100.00
2022-10-18T02:09:19.291Z,100.00
2022-10-18T02:11:48.804Z,100.00
2022-10-18T02:14:17.690Z,100.00
2022-10-18T02:16:50.637Z,100.00
2022-10-18T02:19:22.888Z,100.00
2022-10-18T02:21:53.330Z,100.00
2022-10-18T02:24:23.691Z,100.00
2022-10-18T02:26:50.629Z,100.00
2022-10-18T02:29:17.679Z,100.00
2022-10-18T02:31:49.414Z,100.00
2022-10-18T02:34:21.666Z,100.00
2022-10-18T02:36:51.427Z,100.00
2022-10-18T02:39:20.834Z,100.00
2022-10-18T02:41:47.655Z,100.00
2022-10-18T02:44:15.122Z,100.00
2022-10-18T02:46:42.238Z,100.00
2022-10-18T02:49:10.510Z,100.00
2022-10-18T02:51:37.632Z,100.00
2022-10-18T02:54:04.808Z,100.00
2022-10-18T02:56:31.915Z,100.00
2022-10-18T02:59:00.126Z,100.00
2022-10-18T03:01:27.144Z,100.00
2022-10-18T03:03:54.091Z,100.00
2022-10-18T03:06:22.239Z,100.00
2022-10-18T03:08:50.173Z,100.00
2022-10-18T03:11:17.003Z,100.00
2022-10-18T03:13:45.085Z,100.00
2022-10-18T03:16:12.247Z,100.00
2022-10-18T03:18:40.312Z,100.00
2022-10-18T03:21:08.051Z,100.00
2022-10-18T03:23:36.507Z,100.00
2022-10-18T03:26:03.853Z,100.00
2022-10-18T03:28:31.012Z,100.00
2022-10-18T03:31:00.525Z,100.00
2022-10-18T03:33:27.456Z,100.00
2022-10-18T03:35:54.403Z,100.00
2022-10-18T03:38:21.176Z,100.00
2022-10-18T03:40:51.534Z,100.00
2022-10-18T03:43:18.390Z,100.00
2022-10-18T03:45:45.545Z,100.00
2022-10-18T03:48:12.467Z,100.00
2022-10-18T03:50:39.379Z,100.00
2022-10-18T03:53:06.120Z,100.00
2022-10-18T03:55:33.055Z,100.00
2022-10-18T03:58:01.352Z,100.00
2022-10-18T04:00:28.347Z,100.00
2022-10-18T04:02:56.094Z,100.00
2022-10-18T04:05:23.469Z,100.00
2022-10-18T04:07:51.382Z,100.00
2022-10-18T04:10:18.112Z,100.00
2022-10-18T04:12:45.066Z,100.00
2022-10-18T04:15:13.667Z,100.00
2022-10-18T04:17:40.487Z,100.00
2022-10-18T04:20:08.131Z,100.00
2022-10-18T04:22:35.127Z,100.00
2022-10-18T04:25:01.974Z,100.00
2022-10-18T04:27:29.221Z,100.00
2022-10-18T04:29:56.152Z,100.00
2022-10-18T04:32:24.886Z,100.00
2022-10-18T04:34:51.603Z,100.00
2022-10-18T04:37:18.572Z,100.00
2022-10-18T04:39:47.480Z,100.00
2022-10-18T04:42:17.067Z,100.00
2022-10-18T04:44:44.092Z,100.00
2022-10-18T04:47:11.901Z,100.00
2022-10-18T04:49:40.308Z,100.00
2022-10-18T04:52:07.556Z,100.00
2022-10-18T04:54:34.862Z,100.00
2022-10-18T04:57:01.873Z,100.00
2022-10-18T04:59:29.871Z,100.00
2022-10-18T05:01:57.430Z,100.00
2022-10-18T05:04:25.385Z,100.00
2022-10-18T05:06:53.698Z,100.00
2022-10-18T05:09:20.826Z,100.00
2022-10-18T05:11:47.671Z,100.00
2022-10-18T05:14:14.604Z,100.00
2022-10-18T05:16:42.075Z,100.00
2022-10-18T05:19:09.934Z,100.00
2022-10-18T05:21:36.939Z,100.00
2022-10-18T05:24:08.619Z,100.00
2022-10-18T05:26:37.050Z,100.00
2022-10-18T05:29:05.064Z,100.00
2022-10-18T05:31:32.082Z,100.00
2022-10-18T05:33:58.966Z,100.00
2022-10-18T05:36:25.918Z,100.00
2022-10-18T05:38:52.998Z,100.00
2022-10-18T05:41:24.001Z,100.00
2022-10-18T05:43:51.150Z,100.00
2022-10-18T05:46:19.107Z,100.00
2022-10-18T05:48:50.200Z,100.00
2022-10-18T05:51:17.583Z,100.00
2022-10-18T05:53:44.404Z,100.00
2022-10-18T05:56:13.890Z,100.00
2022-10-18T05:58:43.199Z,100.00
2022-10-18T06:01:12.476Z,100.00
2022-10-18T06:03:45.844Z,100.00
2022-10-18T06:06:16.337Z,100.00
2022-10-18T06:08:44.429Z,100.00
2022-10-18T06:11:13.875Z,100.00
2022-10-18T06:13:46.318Z,100.00
2022-10-18T06:16:17.881Z,100.00
2022-10-18T06:18:48.102Z,100.00
2022-10-18T06:21:17.842Z,100.00
2022-10-18T06:23:50.701Z,100.00
2022-10-18T06:26:22.262Z,100.00
2022-10-18T06:28:51.516Z,100.00
2022-10-18T06:31:19.770Z,100.00
2022-10-18T06:33:47.120Z,100.00
2022-10-18T06:36:17.435Z,100.00
2022-10-18T06:38:45.011Z,100.00
2022-10-18T06:41:12.531Z,100.00
2022-10-18T06:43:39.538Z,100.00
2022-10-18T06:46:08.971Z,100.00
2022-10-18T06:48:38.919Z,100.00
2022-10-18T06:51:07.298Z,100.00
2022-10-18T06:53:40.737Z,100.00
2022-10-18T06:56:12.670Z,100.00
2022-10-18T06:58:40.157Z,100.00
2022-10-18T07:01:11.899Z,100.00
2022-10-18T07:03:39.861Z,100.00
2022-10-18T07:06:09.708Z,99.25
2022-10-18T07:08:40.798Z,99.76
2022-10-18T07:11:09.080Z,100.00
2022-10-18T07:13:37.259Z,100.00
2022-10-18T07:16:05.663Z,100.00
2022-10-18T07:18:39.951Z,98.86
2022-10-18T07:21:12.224Z,98.53
2022-10-18T07:23:41.198Z,95.80
2022-10-18T07:26:15.923Z,92.74
2022-10-18T07:28:46.406Z,92.00
2022-10-18T07:31:13.607Z,89.06
2022-10-18T07:33:42.302Z,89.75
2022-10-18T07:36:11.737Z,89.16
2022-10-18T07:38:39.653Z,87.35
2022-10-18T07:41:09.421Z,87.09
2022-10-18T07:43:36.986Z,85.85
2022-10-18T07:46:07.018Z,85.10
2022-10-18T07:48:35.215Z,85.69
2022-10-18T07:51:04.771Z,85.37
2022-10-18T07:53:32.890Z,84.14
2022-10-18T07:56:03.447Z,83.04
2022-10-18T07:58:33.788Z,82.87
2022-10-18T08:01:03.650Z,81.80
2022-10-18T08:03:30.970Z,79.76
2022-10-18T08:05:59.015Z,80.10
2022-10-18T08:08:28.910Z,79.76
2022-10-18T08:11:03.782Z,79.55
2022-10-18T08:13:30.707Z,79.59
2022-10-18T08:16:01.617Z,78.33
2022-10-18T08:18:28.476Z,77.91
2022-10-18T08:20:55.951Z,77.10
2022-10-18T08:23:23.073Z,73.76
2022-10-18T08:25:51.498Z,73.99
2022-10-18T08:28:19.412Z,75.32
2022-10-18T08:30:46.242Z,75.39
2022-10-18T08:33:14.524Z,73.68
2022-10-18T08:35:41.363Z,73.58
2022-10-18T08:38:09.188Z,73.81
2022-10-18T08:40:43.749Z,73.71
2022-10-18T08:43:22.699Z,73.56
2022-10-18T08:45:50.948Z,74.56
2022-10-18T08:48:21.385Z,71.54
2022-10-18T08:50:49.874Z,73.52
2022-10-18T08:53:23.442Z,73.25
2022-10-18T08:55:54.750Z,72.48
2022-10-18T08:58:25.410Z,72.40
2022-10-18T09:01:07.660Z,72.73
2022-10-18T09:03:57.454Z,71.17
2022-10-18T09:06:30.759Z,71.05
2022-10-18T09:09:18.075Z,70.24
2022-10-18T09:11:58.111Z,69.97
2022-10-18T09:14:52.687Z,70.06
2022-10-18T09:17:29.899Z,69.49
2022-10-18T09:20:17.000Z,67.99
2022-10-18T09:22:53.559Z,69.82
2022-10-18T09:25:22.375Z,68.35
2022-10-18T09:27:53.971Z,69.87
2022-10-18T09:30:49.289Z,70.77
2022-10-18T09:33:30.056Z,69.29
2022-10-18T09:35:58.923Z,67.54
2022-10-18T09:38:32.555Z,68.62
2022-10-18T09:41:04.641Z,69.00
2022-10-18T09:43:44.941Z,67.85
2022-10-18T09:46:18.109Z,66.17
2022-10-18T09:48:51.522Z,66.89
2022-10-18T09:51:23.960Z,66.72
2022-10-18T09:54:04.430Z,66.36
2022-10-18T09:56:41.894Z,66.75
2022-10-18T09:59:30.268Z,66.39
2022-10-18T10:01:58.796Z,64.38
2022-10-18T10:04:25.828Z,64.79
2022-10-18T10:06:55.553Z,64.58
2022-10-18T10:09:27.267Z,63.01
2022-10-18T10:11:54.270Z,65.42
2022-10-18T10:14:23.006Z,65.03
2022-10-18T10:16:55.056Z,63.54
2022-10-18T10:19:30.566Z,64.91
2022-10-18T10:22:03.795Z,62.75
2022-10-18T10:24:42.158Z,62.27
2022-10-18T10:27:18.932Z,62.88
2022-10-18T10:29:55.112Z,62.57
2022-10-18T10:34:59.183Z,63.49
2022-10-18T10:37:32.256Z,62.73
2022-10-18T10:40:18.190Z,61.07
2022-10-18T10:43:08.815Z,61.70
2022-10-18T10:46:00.158Z,60.65
2022-10-18T10:48:32.453Z,61.79
2022-10-18T10:51:05.024Z,60.13
2022-10-18T10:53:41.208Z,61.75
2022-10-18T10:56:21.734Z,61.34
2022-10-18T10:58:49.003Z,60.86
2022-10-18T11:01:22.516Z,61.95
2022-10-18T11:03:51.553Z,60.41
2022-10-18T11:06:50.196Z,60.90
2022-10-18T11:09:28.541Z,60.17
2022-10-18T11:12:16.619Z,59.64
2022-10-18T11:14:50.337Z,59.05
2022-10-18T11:17:28.127Z,61.75
2022-10-18T11:20:18.737Z,59.02
2022-10-18T11:22:58.039Z,59.26
2022-10-18T11:25:29.498Z,59.83
2022-10-18T11:28:03.213Z,58.32
2022-10-18T11:30:50.179Z,59.78
2022-10-18T11:33:50.329Z,59.84
2022-10-18T11:39:02.982Z,58.23
2022-10-18T11:41:31.759Z,58.03
2022-10-18T11:44:03.572Z,58.39
2022-10-18T11:46:45.257Z,57.59
2022-10-18T11:49:29.628Z,57.23
2022-10-18T11:52:09.175Z,58.17
2022-10-18T11:55:05.349Z,57.99
2022-10-18T11:57:46.464Z,58.55
2022-10-18T12:00:29.819Z,57.22
2022-10-18T12:03:41.933Z,57.54
2022-10-18T12:06:15.313Z,58.75
2022-10-18T12:08:47.083Z,56.33
2022-10-18T12:11:20.460Z,57.44
2022-10-18T12:13:51.115Z,56.06
2022-10-18T12:16:38.961Z,56.77
2022-10-18T12:19:22.009Z,58.64
2022-10-18T12:21:53.825Z,58.30
2022-10-18T12:24:24.802Z,59.39
2022-10-18T12:26:59.800Z,58.99
2022-10-18T12:29:32.900Z,58.92
2022-10-18T12:32:03.484Z,58.86
2022-10-18T12:34:35.940Z,59.17
2022-10-18T12:37:40.383Z,58.56
2022-10-18T12:40:18.242Z,57.17
2022-10-18T12:42:53.137Z,58.10
2022-10-18T12:45:30.079Z,57.80
2022-10-18T12:48:02.835Z,57.09
2022-10-18T12:50:32.831Z,55.15
2022-10-18T12:53:16.843Z,55.06
2022-10-18T12:55:45.277Z,54.95
2022-10-18T12:58:41.706Z,53.99
2022-10-18T13:01:08.801Z,55.90
2022-10-18T13:03:55.712Z,56.84
2022-10-18T13:06:25.082Z,55.91
2022-10-18T13:09:18.538Z,56.77
2022-10-18T13:11:45.582Z,57.45
2022-10-18T13:15:12.634Z,57.14
2022-10-18T13:17:50.768Z,56.98
2022-10-18T13:20:27.233Z,56.62
2022-10-18T13:23:10.964Z,57.37
2022-10-18T13:25:51.847Z,57.84
2022-10-18T13:28:30.830Z,58.80
2022-10-18T13:31:04.065Z,57.60
2022-10-18T13:33:34.248Z,56.79
2022-10-18T13:36:04.764Z,57.89
2022-10-18T13:38:44.101Z,57.80
2022-10-18T13:41:14.527Z,57.87
2022-10-18T13:44:20.040Z,57.84
2022-10-18T13:47:15.264Z,57.50
2022-10-18T13:49:59.599Z,57.31
2022-10-18T13:52:37.828Z,57.04
2022-10-18T13:55:25.884Z,57.38
2022-10-18T13:58:06.456Z,58.64
2022-10-18T14:01:02.391Z,58.57
2022-10-18T14:03:58.063Z,58.41
2022-10-18T14:06:28.957Z,60.07
2022-10-18T14:09:09.347Z,60.08
2022-10-18T14:11:50.284Z,61.31
2022-10-18T14:14:24.223Z,61.61
2022-10-18T14:17:03.136Z,62.47
2022-10-18T14:19:36.941Z,62.66
2022-10-18T14:22:11.576Z,64.59
2022-10-18T14:24:44.455Z,65.48
2022-10-18T14:27:18.224Z,65.07
2022-10-18T14:29:45.654Z,66.17
2022-10-18T14:32:23.944Z,66.63
2022-10-18T14:34:53.887Z,66.71
2022-10-18T14:37:28.046Z,67.46
2022-10-18T14:39:55.232Z,67.30
2022-10-18T14:42:23.950Z,68.53
2022-10-18T14:44:54.423Z,68.42
2022-10-18T14:47:24.839Z,68.57
2022-10-18T14:49:55.572Z,69.23
2022-10-18T14:52:26.632Z,69.58
2022-10-18T14:54:55.680Z,69.46
2022-10-18T14:57:25.177Z,69.76
2022-10-18T14:59:54.883Z,72.77
2022-10-18T15:02:23.852Z,71.99
2022-10-18T15:05:07.480Z,73.05
2022-10-18T15:07:35.338Z,73.24
2022-10-18T15:10:05.595Z,73.74
2022-10-18T15:12:40.886Z,74.49
2022-10-18T15:15:22.380Z,75.77
2022-10-18T15:17:49.917Z,75.57
2022-10-18T15:20:26.975Z,76.88
2022-10-18T15:23:15.244Z,77.52
2022-10-18T15:25:42.352Z,77.35
2022-10-18T15:28:24.585Z,77.71
2022-10-18T15:30:51.483Z,78.17
2022-10-18T15:33:22.458Z,79.24
2022-10-18T15:35:52.693Z,80.09
2022-10-18T15:38:26.842Z,80.67
2022-10-18T15:40:53.917Z,81.68
2022-10-18T15:43:39.089Z,83.39
2022-10-18T15:46:07.443Z,83.43
2022-10-18T15:48:38.210Z,85.09
2022-10-18T15:51:08.345Z,87.52
2022-10-18T15:53:43.230Z,90.14
2022-10-18T15:56:28.128Z,91.71
2022-10-18T15:58:57.945Z,91.34
2022-10-18T16:01:34.628Z,92.58
2022-10-18T16:04:07.210Z,89.91
2022-10-18T16:06:35.516Z,89.53
2022-10-18T16:09:02.399Z,89.30
2022-10-18T16:11:29.346Z,90.31
2022-10-18T16:13:58.008Z,89.95
2022-10-18T16:16:28.483Z,90.68
2022-10-18T16:18:57.044Z,87.98
2022-10-18T16:21:26.495Z,87.53
2022-10-18T16:23:55.176Z,87.74
2022-10-18T16:26:23.490Z,87.04
2022-10-18T16:28:51.500Z,86.76
2022-10-18T16:31:21.681Z,86.49
2022-10-18T16:33:56.533Z,87.57
2022-10-18T16:36:27.363Z,84.16
2022-10-18T16:39:05.748Z,83.92
2022-10-18T16:41:34.852Z,84.87
2022-10-18T16:44:02.007Z,86.84
2022-10-18T16:46:33.408Z,87.96
2022-10-18T16:49:01.155Z,87.38
2022-10-18T16:51:30.205Z,87.96
2022-10-18T16:53:58.384Z,88.04
2022-10-18T16:56:32.505Z,87.61
2022-10-18T16:59:00.351Z,88.62
2022-10-18T17:01:30.981Z,88.95
2022-10-18T17:03:57.930Z,87.98
2022-10-18T17:06:27.149Z,87.15
2022-10-18T17:08:56.577Z,86.22
2022-10-18T17:11:27.521Z,87.43
2022-10-18T17:13:54.997Z,85.03
2022-10-18T17:16:24.720Z,85.67
2022-10-18T17:18:51.634Z,83.29
2022-10-18T17:21:18.578Z,83.96
2022-10-18T17:23:45.730Z,82.02
2022-10-18T17:26:27.651Z,79.58
2022-10-18T17:29:00.744Z,83.23
2022-10-18T17:31:27.675Z,84.63
2022-10-18T17:33:55.687Z,83.18
2022-10-18T17:36:22.674Z,84.19
2022-10-18T17:38:50.835Z,82.76
2022-10-18T17:41:18.461Z,84.57
2022-10-18T17:43:47.730Z,85.57
2022-10-18T17:46:16.688Z,86.75
2022-10-18T17:48:44.070Z,88.48
2022-10-18T17:51:12.437Z,87.63
2022-10-18T17:53:39.701Z,86.30
2022-10-18T17:56:09.605Z,85.12
2022-10-18T17:58:36.370Z,86.02
2022-10-18T18:01:11.679Z,84.84
2022-10-18T18:03:41.379Z,85.88
2022-10-18T18:06:16.750Z,85.55
2022-10-18T18:08:43.277Z,85.38
2022-10-18T18:11:10.248Z,85.37
2022-10-18T18:13:37.068Z,85.36
2022-10-18T18:16:17.296Z,83.59
2022-10-18T18:18:48.915Z,83.37
2022-10-18T18:21:16.210Z,83.33
2022-10-18T18:23:43.401Z,84.83
2022-10-18T18:26:12.551Z,86.46
2022-10-18T18:28:39.453Z,85.78
2022-10-18T18:31:07.265Z,87.97
2022-10-18T18:33:34.155Z,86.77
2022-10-18T18:36:05.441Z,86.90
2022-10-18T18:38:34.742Z,87.00
2022-10-18T18:41:11.119Z,87.61
2022-10-18T18:43:39.835Z,87.98
2022-10-18T18:46:09.019Z,87.31
2022-10-18T18:48:36.997Z,84.64
2022-10-18T18:51:11.126Z,85.05
2022-10-18T18:53:39.140Z,84.62
2022-10-18T18:56:08.449Z,82.16
2022-10-18T18:58:37.755Z,82.86
2022-10-18T19:01:09.571Z,82.52
2022-10-18T19:03:41.246Z,82.32
2022-10-18T19:06:11.453Z,84.43
2022-10-18T19:08:41.179Z,84.53
2022-10-18T19:11:15.207Z,85.08
2022-10-18T19:13:43.667Z,85.20
2022-10-18T19:16:18.760Z,85.96
2022-10-18T19:18:51.295Z,86.13
2022-10-18T19:21:20.124Z,85.95
2022-10-18T19:23:47.029Z,86.79
2022-10-18T19:26:22.994Z,86.94
2022-10-18T19:28:49.958Z,87.98
2022-10-18T19:31:16.887Z,87.32
2022-10-18T19:33:55.660Z,88.12
2022-10-18T19:36:28.503Z,88.15
2022-10-18T19:38:56.835Z,88.34
2022-10-18T19:43:58.724Z,87.55
2022-10-18T19:46:28.951Z,88.11
2022-10-18T19:48:56.149Z,86.11
2022-10-18T19:51:28.461Z,86.78
2022-10-18T19:53:58.808Z,87.28
2022-10-18T19:56:28.473Z,88.29
2022-10-18T19:58:58.592Z,89.27
2022-10-18T20:01:28.505Z,88.01
2022-10-18T20:03:55.830Z,88.65
2022-10-18T20:06:27.513Z,88.29
2022-10-18T20:08:55.482Z,87.78
2022-10-18T20:11:28.206Z,86.87
2022-10-18T20:13:56.260Z,88.17
2022-10-18T20:16:32.091Z,88.65
2022-10-18T20:19:00.736Z,91.46
2022-10-18T20:21:29.794Z,89.27
2022-10-18T20:23:57.020Z,91.34
2022-10-18T20:26:27.839Z,91.37
2022-10-18T20:28:58.317Z,89.32
2022-10-18T20:31:29.130Z,89.81
2022-10-18T20:33:57.812Z,90.56
2022-10-18T20:36:30.781Z,90.85
2022-10-18T20:38:58.781Z,90.93
2022-10-18T20:41:29.261Z,91.07
2022-10-18T20:43:58.999Z,91.66
2022-10-18T20:46:26.944Z,91.83
2022-10-18T20:48:55.498Z,93.17
2022-10-18T20:51:24.026Z,92.73
2022-10-18T20:53:51.626Z,90.78
2022-10-18T20:56:20.894Z,90.36
2022-10-18T20:58:50.582Z,92.17
2022-10-18T21:01:19.490Z,93.05
2022-10-18T21:03:49.117Z,93.08
2022-10-18T21:06:18.245Z,95.11
2022-10-18T21:08:46.536Z,97.25
2022-10-18T21:11:14.372Z,94.84
2022-10-18T21:13:42.869Z,93.47
2022-10-18T21:16:11.696Z,94.62
2022-10-18T21:18:38.725Z,93.50
2022-10-18T21:21:11.119Z,93.78
2022-10-18T21:23:38.603Z,92.14
2022-10-18T21:26:06.079Z,91.19
2022-10-18T21:28:35.495Z,91.26
2022-10-18T21:31:16.703Z,91.02
2022-10-18T21:33:45.014Z,90.85
2022-10-18T21:36:13.351Z,92.94
2022-10-18T21:38:43.815Z,93.13
2022-10-18T21:41:12.042Z,91.85
2022-10-18T21:43:40.462Z,91.57
2022-10-18T21:46:13.483Z,90.05
2022-10-18T21:48:45.787Z,90.20
2022-10-18T21:51:18.033Z,91.04
2022-10-18T21:53:48.056Z,90.81
2022-10-18T21:56:21.346Z,92.03
2022-10-18T21:58:49.655Z,92.65
2022-10-18T22:01:18.536Z,92.68
2022-10-18T22:03:49.644Z,93.49
2022-10-18T22:06:21.358Z,93.76
2022-10-18T22:08:51.389Z,93.63
2022-10-18T22:11:23.173Z,93.63
2022-10-18T22:13:50.000Z,92.67
2022-10-18T22:16:18.593Z,92.66
2022-10-18T22:18:48.196Z,93.09
2022-10-18T22:21:18.947Z,89.79
2022-10-18T22:23:48.349Z,89.71
2022-10-18T22:26:18.647Z,88.89
2022-10-18T22:28:53.091Z,89.59
2022-10-18T22:31:31.771Z,89.69
2022-10-18T22:34:03.074Z,90.31
2022-10-18T22:36:31.006Z,91.17
2022-10-18T22:39:01.142Z,92.13
2022-10-18T22:41:30.413Z,92.75
2022-10-18T22:44:01.108Z,93.94
2022-10-18T22:46:32.498Z,94.43
2022-10-18T22:49:00.935Z,94.17
2022-10-18T22:51:31.389Z,95.12
2022-10-18T22:53:58.660Z,94.73
2022-10-18T22:56:26.309Z,95.64
2022-10-18T22:58:53.164Z,95.92
2022-10-18T23:01:22.152Z,95.88
2022-10-18T23:03:54.614Z,95.90
2022-10-18T23:06:25.124Z,95.79
2022-10-18T23:08:54.267Z,96.62
2022-10-18T23:11:23.063Z,95.77
2022-10-18T23:13:52.603Z,95.01
2022-10-18T23:16:20.584Z,94.08
2022-10-18T23:18:49.807Z,93.04
2022-10-18T23:21:16.620Z,93.82
2022-10-18T23:23:47.087Z,94.47
2022-10-18T23:26:17.222Z,94.55
2022-10-18T23:28:47.535Z,93.26
2022-10-18T23:31:16.584Z,93.46
2022-10-18T23:33:45.661Z,93.29
2022-10-18T23:36:12.849Z,94.04
2022-10-18T23:38:45.529Z,93.84
2022-10-18T23:41:14.359Z,94.41
2022-10-18T23:43:42.050Z,95.03
2022-10-18T23:46:13.742Z,95.31
2022-10-18T23:48:40.884Z,95.90
2022-10-18T23:51:11.089Z,96.49
2022-10-18T23:53:38.539Z,96.44
2022-10-18T23:56:10.508Z,97.02
2022-10-18T23:58:37.997Z,97.89
